sensor_id;sensor_type;location;lat;lon;timestamp;temperature;humidity
20081;DHT22;10200;49.232;9.222;2023-06-22T00:00:55;22.30;99.90
20081;DHT22;10200;49.232;9.222;2023-06-22T00:03:22;22.30;99.90
20081;DHT22;10200;49.232;9.222;2023-06-22T00:05:48;22.30;99.90
20081;DHT22;10200;49.232;9.222;2023-06-22T00:08:14;22.30;99.90
20081;DHT22;10200;49.232;9.222;2023-06-22T00:10:40;22.30;99.90
20081;DHT22;10200;49.232;9.222;2023-06-22T00:13:07;22.30;99.90
20081;DHT22;10200;49.232;9.222;2023-06-22T00:15:34;22.20;99.90
20081;DHT22;10200;49.232;9.222;2023-06-22T00:17:59;22.20;99.90
20081;DHT22;10200;49.232;9.222;2023-06-22T00:20:26;22.20;99.90
20081;DHT22;10200;49.232;9.222;2023-06-22T00:22:56;22.10;99.90
20081;DHT22;10200;49.232;9.222;2023-06-22T00:25:22;22.10;99.90
20081;DHT22;10200;49.232;9.222;2023-06-22T00:27:47;22.00;99.90
20081;DHT22;10200;49.232;9.222;2023-06-22T00:30:14;22.00;99.90
20081;DHT22;10200;49.232;9.222;2023-06-22T00:32:40;21.90;99.90
20081;DHT22;10200;49.232;9.222;2023-06-22T00:35:06;21.90;99.90
20081;DHT22;10200;49.232;9.222;2023-06-22T00:37:31;21.90;99.90
20081;DHT22;10200;49.232;9.222;2023-06-22T00:39:57;22.00;99.90
20081;DHT22;10200;49.232;9.222;2023-06-22T00:42:23;21.90;99.90
20081;DHT22;10200;49.232;9.222;2023-06-22T00:44:48;21.90;99.90
20081;DHT22;10200;49.232;9.222;2023-06-22T00:47:18;21.90;99.90
20081;DHT22;10200;49.232;9.222;2023-06-22T00:49:44;21.90;99.90
20081;DHT22;10200;49.232;9.222;2023-06-22T00:52:12;21.80;99.90
20081;DHT22;10200;49.232;9.222;2023-06-22T00:54:42;21.80;99.90
20081;DHT22;10200;49.232;9.222;2023-06-22T00:57:12;21.80;99.90
20081;DHT22;10200;49.232;9.222;2023-06-22T00:59:45;21.80;99.90
20081;DHT22;10200;49.232;9.222;2023-06-22T01:02:11;21.80;99.90
20081;DHT22;10200;49.232;9.222;2023-06-22T01:04:38;21.80;99.90
20081;DHT22;10200;49.232;9.222;2023-06-22T01:07:35;21.80;99.90
20081;DHT22;10200;49.232;9.222;2023-06-22T01:10:17;21.80;99.90
20081;DHT22;10200;49.232;9.222;2023-06-22T01:12:48;21.90;99.90
20081;DHT22;10200;49.232;9.222;2023-06-22T01:15:21;21.90;99.90
20081;DHT22;10200;49.232;9.222;2023-06-22T01:17:48;21.90;99.90
20081;DHT22;10200;49.232;9.222;2023-06-22T01:20:15;21.80;99.90
20081;DHT22;10200;49.232;9.222;2023-06-22T01:25:47;21.80;99.90
20081;DHT22;10200;49.232;9.222;2023-06-22T01:31:09;21.80;99.90
20081;DHT22;10200;49.232;9.222;2023-06-22T01:33:39;21.70;99.90
20081;DHT22;10200;49.232;9.222;2023-06-22T01:36:07;21.60;99.90
20081;DHT22;10200;49.232;9.222;2023-06-22T01:38:33;21.60;99.90
20081;DHT22;10200;49.232;9.222;2023-06-22T01:40:59;21.50;99.90
20081;DHT22;10200;49.232;9.222;2023-06-22T01:43:27;21.40;99.90
20081;DHT22;10200;49.232;9.222;2023-06-22T01:45:54;21.30;99.90
20081;DHT22;10200;49.232;9.222;2023-06-22T01:48:21;21.30;99.90
20081;DHT22;10200;49.232;9.222;2023-06-22T01:50:47;21.20;99.90
20081;DHT22;10200;49.232;9.222;2023-06-22T01:53:12;21.20;99.90
20081;DHT22;10200;49.232;9.222;2023-06-22T01:55:38;21.10;99.90
20081;DHT22;10200;49.232;9.222;2023-06-22T01:58:04;21.10;99.90
20081;DHT22;10200;49.232;9.222;2023-06-22T02:00:32;21.00;99.90
20081;DHT22;10200;49.232;9.222;2023-06-22T02:03:05;21.00;99.90
20081;DHT22;10200;49.232;9.222;2023-06-22T02:05:49;20.90;99.90
20081;DHT22;10200;49.232;9.222;2023-06-22T02:08:24;21.00;99.90
20081;DHT22;10200;49.232;9.222;2023-06-22T02:10:51;20.90;99.90
20081;DHT22;10200;49.232;9.222;2023-06-22T02:13:18;20.90;99.90
20081;DHT22;10200;49.232;9.222;2023-06-22T02:15:44;21.00;99.90
20081;DHT22;10200;49.232;9.222;2023-06-22T02:18:10;21.00;99.90
20081;DHT22;10200;49.232;9.222;2023-06-22T02:20:37;21.10;99.90
20081;DHT22;10200;49.232;9.222;2023-06-22T02:23:03;21.10;99.90
20081;DHT22;10200;49.232;9.222;2023-06-22T02:25:28;21.20;99.90
20081;DHT22;10200;49.232;9.222;2023-06-22T02:27:54;21.20;99.90
20081;DHT22;10200;49.232;9.222;2023-06-22T02:30:19;21.20;99.90
20081;DHT22;10200;49.232;9.222;2023-06-22T02:32:45;21.20;99.90
20081;DHT22;10200;49.232;9.222;2023-06-22T02:35:10;21.20;99.90
20081;DHT22;10200;49.232;9.222;2023-06-22T02:37:37;21.20;99.90
20081;DHT22;10200;49.232;9.222;2023-06-22T02:40:10;21.10;99.90
20081;DHT22;10200;49.232;9.222;2023-06-22T02:42:36;21.10;99.90
20081;DHT22;10200;49.232;9.222;2023-06-22T02:45:02;21.10;99.90
20081;DHT22;10200;49.232;9.222;2023-06-22T02:47:28;21.10;99.90
20081;DHT22;10200;49.232;9.222;2023-06-22T02:49:54;21.10;99.90
20081;DHT22;10200;49.232;9.222;2023-06-22T02:52:20;21.10;99.90
20081;DHT22;10200;49.232;9.222;2023-06-22T02:54:46;21.00;99.90
20081;DHT22;10200;49.232;9.222;2023-06-22T02:57:12;20.90;99.90
20081;DHT22;10200;49.232;9.222;2023-06-22T02:59:42;20.90;99.90
20081;DHT22;10200;49.232;9.222;2023-06-22T03:02:08;20.90;99.90
20081;DHT22;10200;49.232;9.222;2023-06-22T03:04:35;20.80;99.90
20081;DHT22;10200;49.232;9.222;2023-06-22T03:07:00;20.80;99.90
20081;DHT22;10200;49.232;9.222;2023-06-22T03:09:27;20.80;99.90
20081;DHT22;10200;49.232;9.222;2023-06-22T03:11:55;20.70;99.90
20081;DHT22;10200;49.232;9.222;2023-06-22T03:14:21;20.70;99.90
20081;DHT22;10200;49.232;9.222;2023-06-22T03:16:47;20.70;99.90
20081;DHT22;10200;49.232;9.222;2023-06-22T03:19:13;20.70;99.90
20081;DHT22;10200;49.232;9.222;2023-06-22T03:21:39;20.70;99.90
20081;DHT22;10200;49.232;9.222;2023-06-22T03:24:06;20.70;99.90
20081;DHT22;10200;49.232;9.222;2023-06-22T03:26:31;20.70;99.90
20081;DHT22;10200;49.232;9.222;2023-06-22T03:28:57;20.70;99.90
20081;DHT22;10200;49.232;9.222;2023-06-22T03:31:23;20.70;99.90
20081;DHT22;10200;49.232;9.222;2023-06-22T03:33:49;20.80;99.90
20081;DHT22;10200;49.232;9.222;2023-06-22T03:36:16;20.70;99.90
20081;DHT22;10200;49.232;9.222;2023-06-22T03:38:45;20.90;99.90
20081;DHT22;10200;49.232;9.222;2023-06-22T03:41:11;20.80;99.90
20081;DHT22;10200;49.232;9.222;2023-06-22T03:43:37;20.90;99.90
20081;DHT22;10200;49.232;9.222;2023-06-22T03:46:02;21.00;99.90
20081;DHT22;10200;49.232;9.222;2023-06-22T03:48:28;21.00;99.90
20081;DHT22;10200;49.232;9.222;2023-06-22T03:50:54;21.00;99.90
20081;DHT22;10200;49.232;9.222;2023-06-22T03:53:19;21.00;99.90
20081;DHT22;10200;49.232;9.222;2023-06-22T03:55:49;21.00;99.90
20081;DHT22;10200;49.232;9.222;2023-06-22T03:58:16;21.00;99.90
20081;DHT22;10200;49.232;9.222;2023-06-22T04:00:50;21.00;99.90
20081;DHT22;10200;49.232;9.222;2023-06-22T04:03:16;21.00;99.90
20081;DHT22;10200;49.232;9.222;2023-06-22T04:05:44;21.00;99.90
20081;DHT22;10200;49.232;9.222;2023-06-22T04:08:09;21.00;99.90
20081;DHT22;10200;49.232;9.222;2023-06-22T04:10:35;21.00;99.90
20081;DHT22;10200;49.232;9.222;2023-06-22T04:13:01;21.00;99.90
20081;DHT22;10200;49.232;9.222;2023-06-22T04:15:26;21.10;99.90
20081;DHT22;10200;49.232;9.222;2023-06-22T04:17:54;21.10;99.90
20081;DHT22;10200;49.232;9.222;2023-06-22T04:20:19;21.20;99.90
20081;DHT22;10200;49.232;9.222;2023-06-22T04:22:45;21.30;99.90
20081;DHT22;10200;49.232;9.222;2023-06-22T04:25:11;21.30;99.90
20081;DHT22;10200;49.232;9.222;2023-06-22T04:27:36;21.40;99.90
20081;DHT22;10200;49.232;9.222;2023-06-22T04:30:06;21.50;99.90
20081;DHT22;10200;49.232;9.222;2023-06-22T04:32:33;21.50;99.90
20081;DHT22;10200;49.232;9.222;2023-06-22T04:34:59;21.60;99.90
20081;DHT22;10200;49.232;9.222;2023-06-22T04:37:27;21.60;99.90
20081;DHT22;10200;49.232;9.222;2023-06-22T04:39:53;21.70;99.90
20081;DHT22;10200;49.232;9.222;2023-06-22T04:42:18;21.90;99.90
20081;DHT22;10200;49.232;9.222;2023-06-22T04:44:44;22.10;99.90
20081;DHT22;10200;49.232;9.222;2023-06-22T04:47:10;22.60;99.90
20081;DHT22;10200;49.232;9.222;2023-06-22T04:49:36;23.10;99.90
20081;DHT22;10200;49.232;9.222;2023-06-22T04:52:04;23.60;99.90
20081;DHT22;10200;49.232;9.222;2023-06-22T04:54:30;23.90;99.90
20081;DHT22;10200;49.232;9.222;2023-06-22T04:57:06;24.10;99.90
20081;DHT22;10200;49.232;9.222;2023-06-22T04:59:35;24.20;99.90
20081;DHT22;10200;49.232;9.222;2023-06-22T05:02:02;24.30;99.90
20081;DHT22;10200;49.232;9.222;2023-06-22T05:04:29;24.40;99.90
20081;DHT22;10200;49.232;9.222;2023-06-22T05:06:59;24.40;99.90
20081;DHT22;10200;49.232;9.222;2023-06-22T05:09:25;24.40;99.90
20081;DHT22;10200;49.232;9.222;2023-06-22T05:11:51;24.40;99.90
20081;DHT22;10200;49.232;9.222;2023-06-22T05:14:17;24.40;99.90
20081;DHT22;10200;49.232;9.222;2023-06-22T05:16:43;24.40;99.90
20081;DHT22;10200;49.232;9.222;2023-06-22T05:19:09;24.50;99.90
20081;DHT22;10200;49.232;9.222;2023-06-22T05:21:35;24.50;99.90
20081;DHT22;10200;49.232;9.222;2023-06-22T05:24:00;24.60;99.70
20081;DHT22;10200;49.232;9.222;2023-06-22T05:26:32;24.60;99.50
20081;DHT22;10200;49.232;9.222;2023-06-22T05:28:59;24.70;99.90
20081;DHT22;10200;49.232;9.222;2023-06-22T05:31:24;24.80;99.90
20081;DHT22;10200;49.232;9.222;2023-06-22T05:33:52;24.80;99.30
20081;DHT22;10200;49.232;9.222;2023-06-22T05:36:18;24.90;99.30
20081;DHT22;10200;49.232;9.222;2023-06-22T05:38:45;25.10;99.20
20081;DHT22;10200;49.232;9.222;2023-06-22T05:41:11;25.20;98.40
20081;DHT22;10200;49.232;9.222;2023-06-22T05:43:37;25.30;97.70
20081;DHT22;10200;49.232;9.222;2023-06-22T05:46:03;25.50;96.80
20081;DHT22;10200;49.232;9.222;2023-06-22T05:48:29;25.60;97.00
20081;DHT22;10200;49.232;9.222;2023-06-22T05:50:55;25.70;95.30
20081;DHT22;10200;49.232;9.222;2023-06-22T05:53:20;25.80;96.10
20081;DHT22;10200;49.232;9.222;2023-06-22T05:55:46;25.90;96.10
20081;DHT22;10200;49.232;9.222;2023-06-22T05:58:12;26.10;95.60
20081;DHT22;10200;49.232;9.222;2023-06-22T06:00:39;26.30;94.30
20081;DHT22;10200;49.232;9.222;2023-06-22T06:03:06;26.50;93.50
20081;DHT22;10200;49.232;9.222;2023-06-22T06:05:32;26.60;92.90
20081;DHT22;10200;49.232;9.222;2023-06-22T06:07:59;26.80;92.90
20081;DHT22;10200;49.232;9.222;2023-06-22T06:10:25;27.00;92.00
20081;DHT22;10200;49.232;9.222;2023-06-22T06:12:51;27.30;91.00
20081;DHT22;10200;49.232;9.222;2023-06-22T06:15:17;27.50;90.10
20081;DHT22;10200;49.232;9.222;2023-06-22T06:17:50;27.70;88.40
20081;DHT22;10200;49.232;9.222;2023-06-22T06:20:18;27.90;86.00
20081;DHT22;10200;49.232;9.222;2023-06-22T06:22:44;28.10;84.60
20081;DHT22;10200;49.232;9.222;2023-06-22T06:25:10;28.20;82.50
20081;DHT22;10200;49.232;9.222;2023-06-22T06:27:42;28.50;89.70
20081;DHT22;10200;49.232;9.222;2023-06-22T06:30:09;28.50;80.80
20081;DHT22;10200;49.232;9.222;2023-06-22T06:32:35;28.70;80.00
20081;DHT22;10200;49.232;9.222;2023-06-22T06:35:00;28.90;76.50
20081;DHT22;10200;49.232;9.222;2023-06-22T06:37:26;29.10;77.60
20081;DHT22;10200;49.232;9.222;2023-06-22T06:39:52;29.20;75.80
20081;DHT22;10200;49.232;9.222;2023-06-22T06:42:17;29.30;73.70
20081;DHT22;10200;49.232;9.222;2023-06-22T06:44:44;29.30;73.80
20081;DHT22;10200;49.232;9.222;2023-06-22T06:47:10;29.30;74.40
20081;DHT22;10200;49.232;9.222;2023-06-22T06:49:35;29.60;73.60
20081;DHT22;10200;49.232;9.222;2023-06-22T06:52:01;29.80;71.80
20081;DHT22;10200;49.232;9.222;2023-06-22T06:54:27;29.70;69.90
20081;DHT22;10200;49.232;9.222;2023-06-22T06:56:53;29.80;70.90
20081;DHT22;10200;49.232;9.222;2023-06-22T06:59:18;30.00;70.70
20081;DHT22;10200;49.232;9.222;2023-06-22T07:01:44;29.90;69.10
20081;DHT22;10200;49.232;9.222;2023-06-22T07:04:10;30.00;69.50
20081;DHT22;10200;49.232;9.222;2023-06-22T07:06:35;30.00;69.90
20081;DHT22;10200;49.232;9.222;2023-06-22T07:09:01;30.10;68.90
20081;DHT22;10200;49.232;9.222;2023-06-22T07:11:26;30.20;68.10
20081;DHT22;10200;49.232;9.222;2023-06-22T07:13:52;30.10;68.20
20081;DHT22;10200;49.232;9.222;2023-06-22T07:16:18;30.00;67.60
20081;DHT22;10200;49.232;9.222;2023-06-22T07:18:43;29.90;67.70
20081;DHT22;10200;49.232;9.222;2023-06-22T07:21:09;29.90;67.70
20081;DHT22;10200;49.232;9.222;2023-06-22T07:23:35;29.90;67.30
20081;DHT22;10200;49.232;9.222;2023-06-22T07:26:00;29.90;66.70
20081;DHT22;10200;49.232;9.222;2023-06-22T07:28:31;29.90;67.60
20081;DHT22;10200;49.232;9.222;2023-06-22T07:31:02;30.10;67.10
20081;DHT22;10200;49.232;9.222;2023-06-22T07:33:29;30.20;67.00
20081;DHT22;10200;49.232;9.222;2023-06-22T07:35:54;30.10;66.10
20081;DHT22;10200;49.232;9.222;2023-06-22T07:38:20;30.00;66.00
20081;DHT22;10200;49.232;9.222;2023-06-22T07:40:46;30.00;66.00
20081;DHT22;10200;49.232;9.222;2023-06-22T07:43:11;29.90;66.60
20081;DHT22;10200;49.232;9.222;2023-06-22T07:45:38;30.00;65.70
20081;DHT22;10200;49.232;9.222;2023-06-22T07:48:05;30.00;66.20
20081;DHT22;10200;49.232;9.222;2023-06-22T07:50:30;30.10;65.90
20081;DHT22;10200;49.232;9.222;2023-06-22T07:52:56;30.30;65.60
20081;DHT22;10200;49.232;9.222;2023-06-22T07:55:22;30.30;65.60
20081;DHT22;10200;49.232;9.222;2023-06-22T07:57:49;30.50;65.50
20081;DHT22;10200;49.232;9.222;2023-06-22T08:00:14;30.70;64.40
20081;DHT22;10200;49.232;9.222;2023-06-22T08:02:42;30.70;64.40
20081;DHT22;10200;49.232;9.222;2023-06-22T08:05:09;31.10;65.40
20081;DHT22;10200;49.232;9.222;2023-06-22T08:07:38;31.40;73.80
20081;DHT22;10200;49.232;9.222;2023-06-22T08:10:04;31.20;66.40
20081;DHT22;10200;49.232;9.222;2023-06-22T08:12:31;31.30;64.70
20081;DHT22;10200;49.232;9.222;2023-06-22T08:14:56;31.30;63.40
20081;DHT22;10200;49.232;9.222;2023-06-22T08:17:24;31.30;62.40
20081;DHT22;10200;49.232;9.222;2023-06-22T08:19:49;31.50;62.70
20081;DHT22;10200;49.232;9.222;2023-06-22T08:22:16;31.70;59.40
20081;DHT22;10200;49.232;9.222;2023-06-22T08:24:41;31.70;59.00
20081;DHT22;10200;49.232;9.222;2023-06-22T08:27:07;31.80;58.10
20081;DHT22;10200;49.232;9.222;2023-06-22T08:29:38;31.90;58.10
20081;DHT22;10200;49.232;9.222;2023-06-22T08:32:04;32.10;59.50
20081;DHT22;10200;49.232;9.222;2023-06-22T08:34:30;32.10;57.00
20081;DHT22;10200;49.232;9.222;2023-06-22T08:36:56;32.10;58.20
20081;DHT22;10200;49.232;9.222;2023-06-22T08:39:21;32.30;57.90
20081;DHT22;10200;49.232;9.222;2023-06-22T08:41:47;32.60;57.80
20081;DHT22;10200;49.232;9.222;2023-06-22T08:46:39;32.80;54.80
20081;DHT22;10200;49.232;9.222;2023-06-22T08:49:06;32.80;55.90
20081;DHT22;10200;49.232;9.222;2023-06-22T08:51:32;33.10;54.60
20081;DHT22;10200;49.232;9.222;2023-06-22T08:53:58;33.10;55.60
20081;DHT22;10200;49.232;9.222;2023-06-22T08:56:23;33.30;54.10
20081;DHT22;10200;49.232;9.222;2023-06-22T08:58:49;33.30;53.70
20081;DHT22;10200;49.232;9.222;2023-06-22T09:01:15;33.40;53.90
20081;DHT22;10200;49.232;9.222;2023-06-22T09:03:41;33.50;53.10
20081;DHT22;10200;49.232;9.222;2023-06-22T09:06:07;33.60;52.70
20081;DHT22;10200;49.232;9.222;2023-06-22T09:08:34;33.80;53.10
20081;DHT22;10200;49.232;9.222;2023-06-22T09:11:00;33.90;51.50
20081;DHT22;10200;49.232;9.222;2023-06-22T09:13:26;33.90;51.40
20081;DHT22;10200;49.232;9.222;2023-06-22T09:15:51;33.60;51.80
20081;DHT22;10200;49.232;9.222;2023-06-22T09:18:17;33.50;52.00
20081;DHT22;10200;49.232;9.222;2023-06-22T09:20:43;33.30;52.40
20081;DHT22;10200;49.232;9.222;2023-06-22T09:23:10;33.10;52.40
20081;DHT22;10200;49.232;9.222;2023-06-22T09:25:35;33.40;53.80
20081;DHT22;10200;49.232;9.222;2023-06-22T09:28:01;33.70;52.90
20081;DHT22;10200;49.232;9.222;2023-06-22T09:30:27;33.90;51.90
20081;DHT22;10200;49.232;9.222;2023-06-22T09:32:52;34.00;50.70
20081;DHT22;10200;49.232;9.222;2023-06-22T09:35:18;34.00;50.70
20081;DHT22;10200;49.232;9.222;2023-06-22T09:37:43;33.90;51.20
20081;DHT22;10200;49.232;9.222;2023-06-22T09:40:10;33.90;50.10
20081;DHT22;10200;49.232;9.222;2023-06-22T09:42:38;34.00;51.30
20081;DHT22;10200;49.232;9.222;2023-06-22T09:45:05;33.90;50.30
20081;DHT22;10200;49.232;9.222;2023-06-22T09:47:31;34.00;51.10
20081;DHT22;10200;49.232;9.222;2023-06-22T09:49:56;33.50;50.30
20081;DHT22;10200;49.232;9.222;2023-06-22T09:52:24;33.30;51.40
20081;DHT22;10200;49.232;9.222;2023-06-22T09:54:50;33.20;52.00
20081;DHT22;10200;49.232;9.222;2023-06-22T09:57:15;33.00;51.80
20081;DHT22;10200;49.232;9.222;2023-06-22T09:59:41;33.10;53.10
20081;DHT22;10200;49.232;9.222;2023-06-22T10:02:06;33.20;51.90
20081;DHT22;10200;49.232;9.222;2023-06-22T10:04:34;33.10;51.40
20081;DHT22;10200;49.232;9.222;2023-06-22T10:07:00;33.40;53.10
20081;DHT22;10200;49.232;9.222;2023-06-22T10:09:26;33.60;52.30
20081;DHT22;10200;49.232;9.222;2023-06-22T10:11:52;33.80;51.90
20081;DHT22;10200;49.232;9.222;2023-06-22T10:14:18;33.80;51.10
20081;DHT22;10200;49.232;9.222;2023-06-22T10:16:43;33.90;51.90
20081;DHT22;10200;49.232;9.222;2023-06-22T10:19:09;34.10;51.60
20081;DHT22;10200;49.232;9.222;2023-06-22T10:21:35;33.90;51.00
20081;DHT22;10200;49.232;9.222;2023-06-22T10:24:01;33.80;50.80
20081;DHT22;10200;49.232;9.222;2023-06-22T10:26:32;33.80;51.30
20081;DHT22;10200;49.232;9.222;2023-06-22T10:28:58;33.80;51.20
20081;DHT22;10200;49.232;9.222;2023-06-22T10:31:23;34.00;51.60
20081;DHT22;10200;49.232;9.222;2023-06-22T10:33:49;34.20;51.40
20081;DHT22;10200;49.232;9.222;2023-06-22T10:36:15;34.40;68.70
20081;DHT22;10200;49.232;9.222;2023-06-22T10:38:40;34.10;50.90
20081;DHT22;10200;49.232;9.222;2023-06-22T10:41:06;34.00;50.00
20081;DHT22;10200;49.232;9.222;2023-06-22T10:43:32;33.70;50.60
20081;DHT22;10200;49.232;9.222;2023-06-22T10:45:58;33.40;51.30
20081;DHT22;10200;49.232;9.222;2023-06-22T10:48:23;33.20;52.00
20081;DHT22;10200;49.232;9.222;2023-06-22T10:50:49;33.10;52.50
20081;DHT22;10200;49.232;9.222;2023-06-22T10:53:14;33.00;53.10
20081;DHT22;10200;49.232;9.222;2023-06-22T10:55:40;33.10;53.00
20081;DHT22;10200;49.232;9.222;2023-06-22T10:58:05;33.00;52.90
20081;DHT22;10200;49.232;9.222;2023-06-22T11:00:31;32.90;53.10
20081;DHT22;10200;49.232;9.222;2023-06-22T11:02:57;32.80;53.30
20081;DHT22;10200;49.232;9.222;2023-06-22T11:05:23;32.70;53.30
20081;DHT22;10200;49.232;9.222;2023-06-22T11:07:49;32.80;53.40
20081;DHT22;10200;49.232;9.222;2023-06-22T11:10:15;32.90;54.00
20081;DHT22;10200;49.232;9.222;2023-06-22T11:12:40;33.30;53.80
20081;DHT22;10200;49.232;9.222;2023-06-22T11:15:08;33.50;53.10
20081;DHT22;10200;49.232;9.222;2023-06-22T11:17:34;33.70;52.90
20081;DHT22;10200;49.232;9.222;2023-06-22T11:20:00;33.70;51.30
20081;DHT22;10200;49.232;9.222;2023-06-22T11:22:26;33.50;51.30
20081;DHT22;10200;49.232;9.222;2023-06-22T11:24:51;33.30;51.60
20081;DHT22;10200;49.232;9.222;2023-06-22T11:27:17;33.20;52.40
20081;DHT22;10200;49.232;9.222;2023-06-22T11:29:43;33.20;53.10
20081;DHT22;10200;49.232;9.222;2023-06-22T11:32:08;33.20;53.50
20081;DHT22;10200;49.232;9.222;2023-06-22T11:34:34;33.10;53.20
20081;DHT22;10200;49.232;9.222;2023-06-22T11:37:00;33.00;53.10
20081;DHT22;10200;49.232;9.222;2023-06-22T11:39:26;33.00;53.50
20081;DHT22;10200;49.232;9.222;2023-06-22T11:41:51;33.00;53.40
20081;DHT22;10200;49.232;9.222;2023-06-22T11:44:17;33.10;53.50
20081;DHT22;10200;49.232;9.222;2023-06-22T11:46:42;33.10;53.10
20081;DHT22;10200;49.232;9.222;2023-06-22T11:49:08;33.10;53.00
20081;DHT22;10200;49.232;9.222;2023-06-22T11:51:34;33.00;53.70
20081;DHT22;10200;49.232;9.222;2023-06-22T11:53:59;32.90;53.80
20081;DHT22;10200;49.232;9.222;2023-06-22T11:56:25;32.90;53.80
20081;DHT22;10200;49.232;9.222;2023-06-22T11:58:50;32.80;52.90
20081;DHT22;10200;49.232;9.222;2023-06-22T12:01:16;32.80;54.10
20081;DHT22;10200;49.232;9.222;2023-06-22T12:03:42;32.70;53.70
20081;DHT22;10200;49.232;9.222;2023-06-22T12:06:09;32.60;53.50
20081;DHT22;10200;49.232;9.222;2023-06-22T12:08:35;32.60;53.90
20081;DHT22;10200;49.232;9.222;2023-06-22T12:11:00;32.60;53.60
20081;DHT22;10200;49.232;9.222;2023-06-22T12:13:26;32.60;54.20
20081;DHT22;10200;49.232;9.222;2023-06-22T12:15:52;32.60;53.80
20081;DHT22;10200;49.232;9.222;2023-06-22T12:18:18;32.60;54.50
20081;DHT22;10200;49.232;9.222;2023-06-22T12:20:46;32.60;54.40
20081;DHT22;10200;49.232;9.222;2023-06-22T12:23:11;32.70;54.50
20081;DHT22;10200;49.232;9.222;2023-06-22T12:25:37;32.70;54.20
20081;DHT22;10200;49.232;9.222;2023-06-22T12:28:03;32.60;53.90
20081;DHT22;10200;49.232;9.222;2023-06-22T12:30:30;32.60;54.30
20081;DHT22;10200;49.232;9.222;2023-06-22T12:32:55;32.50;54.70
20081;DHT22;10200;49.232;9.222;2023-06-22T12:35:21;32.50;54.90
20081;DHT22;10200;49.232;9.222;2023-06-22T12:37:46;32.40;55.00
20081;DHT22;10200;49.232;9.222;2023-06-22T12:42:38;32.30;55.30
20081;DHT22;10200;49.232;9.222;2023-06-22T12:45:04;32.30;56.00
20081;DHT22;10200;49.232;9.222;2023-06-22T12:47:30;32.40;56.20
20081;DHT22;10200;49.232;9.222;2023-06-22T12:49:56;32.40;56.70
20081;DHT22;10200;49.232;9.222;2023-06-22T12:52:21;32.40;57.90
20081;DHT22;10200;49.232;9.222;2023-06-22T12:54:47;32.50;58.20
20081;DHT22;10200;49.232;9.222;2023-06-22T12:57:13;32.60;57.30
20081;DHT22;10200;49.232;9.222;2023-06-22T12:59:39;32.70;57.40
20081;DHT22;10200;49.232;9.222;2023-06-22T13:02:05;32.90;57.90
20081;DHT22;10200;49.232;9.222;2023-06-22T13:04:31;33.00;56.40
20081;DHT22;10200;49.232;9.222;2023-06-22T13:06:56;33.10;55.00
20081;DHT22;10200;49.232;9.222;2023-06-22T13:09:22;33.10;54.30
20081;DHT22;10200;49.232;9.222;2023-06-22T13:11:47;33.10;55.70
20081;DHT22;10200;49.232;9.222;2023-06-22T13:14:13;33.10;55.20
20081;DHT22;10200;49.232;9.222;2023-06-22T13:16:39;33.00;55.20
20081;DHT22;10200;49.232;9.222;2023-06-22T13:19:05;32.80;55.20
20081;DHT22;10200;49.232;9.222;2023-06-22T13:21:31;32.80;55.60
20081;DHT22;10200;49.232;9.222;2023-06-22T13:23:56;32.70;55.50
20081;DHT22;10200;49.232;9.222;2023-06-22T13:26:22;32.60;55.80
20081;DHT22;10200;49.232;9.222;2023-06-22T13:28:47;32.70;55.80
20081;DHT22;10200;49.232;9.222;2023-06-22T13:31:13;32.70;56.30
20081;DHT22;10200;49.232;9.222;2023-06-22T13:33:39;32.80;55.90
20081;DHT22;10200;49.232;9.222;2023-06-22T13:36:06;32.80;55.50
20081;DHT22;10200;49.232;9.222;2023-06-22T13:38:32;32.90;56.40
20081;DHT22;10200;49.232;9.222;2023-06-22T13:40:58;33.00;56.10
20081;DHT22;10200;49.232;9.222;2023-06-22T13:43:26;33.00;55.90
20081;DHT22;10200;49.232;9.222;2023-06-22T13:45:52;33.00;56.30
20081;DHT22;10200;49.232;9.222;2023-06-22T13:48:17;33.00;55.70
20081;DHT22;10200;49.232;9.222;2023-06-22T13:50:43;33.00;56.20
20081;DHT22;10200;49.232;9.222;2023-06-22T13:53:09;33.10;56.50
20081;DHT22;10200;49.232;9.222;2023-06-22T13:55:35;33.30;56.00
20081;DHT22;10200;49.232;9.222;2023-06-22T13:58:00;33.60;55.90
20081;DHT22;10200;49.232;9.222;2023-06-22T14:00:26;33.80;54.90
20081;DHT22;10200;49.232;9.222;2023-06-22T14:02:53;34.00;55.00
20081;DHT22;10200;49.232;9.222;2023-06-22T14:05:18;34.30;54.30
20081;DHT22;10200;49.232;9.222;2023-06-22T14:07:45;34.40;53.40
20081;DHT22;10200;49.232;9.222;2023-06-22T14:10:11;34.40;53.60
20081;DHT22;10200;49.232;9.222;2023-06-22T14:12:36;34.60;54.00
20081;DHT22;10200;49.232;9.222;2023-06-22T14:15:02;34.70;53.20
20081;DHT22;10200;49.232;9.222;2023-06-22T14:17:28;34.70;52.70
20081;DHT22;10200;49.232;9.222;2023-06-22T14:19:53;34.70;52.90
20081;DHT22;10200;49.232;9.222;2023-06-22T14:22:20;34.70;52.80
20081;DHT22;10200;49.232;9.222;2023-06-22T14:24:47;34.80;52.50
20081;DHT22;10200;49.232;9.222;2023-06-22T14:27:12;34.80;52.10
20081;DHT22;10200;49.232;9.222;2023-06-22T14:29:38;34.80;51.70
20081;DHT22;10200;49.232;9.222;2023-06-22T14:32:04;34.70;51.20
20081;DHT22;10200;49.232;9.222;2023-06-22T14:34:31;34.70;51.60
20081;DHT22;10200;49.232;9.222;2023-06-22T14:36:57;34.60;51.60
20081;DHT22;10200;49.232;9.222;2023-06-22T14:39:23;34.50;51.80
20081;DHT22;10200;49.232;9.222;2023-06-22T14:41:48;34.40;52.00
20081;DHT22;10200;49.232;9.222;2023-06-22T14:44:14;34.30;52.40
20081;DHT22;10200;49.232;9.222;2023-06-22T14:46:40;34.20;51.80
20081;DHT22;10200;49.232;9.222;2023-06-22T14:49:06;34.20;50.90
20081;DHT22;10200;49.232;9.222;2023-06-22T14:51:31;34.20;51.50
20081;DHT22;10200;49.232;9.222;2023-06-22T14:53:57;34.20;52.00
20081;DHT22;10200;49.232;9.222;2023-06-22T14:56:22;34.20;52.50
20081;DHT22;10200;49.232;9.222;2023-06-22T14:58:48;34.10;52.50
20081;DHT22;10200;49.232;9.222;2023-06-22T15:01:15;34.10;51.60
20081;DHT22;10200;49.232;9.222;2023-06-22T15:03:41;33.90;50.80
20081;DHT22;10200;49.232;9.222;2023-06-22T15:06:08;33.90;50.90
20081;DHT22;10200;49.232;9.222;2023-06-22T15:08:34;33.80;50.30
20081;DHT22;10200;49.232;9.222;2023-06-22T15:11:00;33.80;50.90
20081;DHT22;10200;49.232;9.222;2023-06-22T15:13:30;33.60;50.70
20081;DHT22;10200;49.232;9.222;2023-06-22T15:15:59;33.60;51.20
20081;DHT22;10200;49.232;9.222;2023-06-22T15:18:25;33.50;52.00
20081;DHT22;10200;49.232;9.222;2023-06-22T15:20:51;33.40;52.40
20081;DHT22;10200;49.232;9.222;2023-06-22T15:23:17;33.40;52.10
20081;DHT22;10200;49.232;9.222;2023-06-22T15:25:42;33.40;52.50
20081;DHT22;10200;49.232;9.222;2023-06-22T15:28:09;33.50;53.10
20081;DHT22;10200;49.232;9.222;2023-06-22T15:30:35;33.60;53.20
20081;DHT22;10200;49.232;9.222;2023-06-22T15:33:01;33.70;53.10
20081;DHT22;10200;49.232;9.222;2023-06-22T15:35:27;33.80;53.40